createdAt,value
2018-05-05T00:00:22.996Z,14.99
2018-05-05T00:00:49.128Z,14.89
2018-05-05T00:01:15.271Z,14.91
2018-05-05T00:01:41.407Z,14.94
2018-05-05T00:02:07.567Z,14.97
2018-05-05T00:02:33.702Z,14.97
2018-05-05T00:02:59.837Z,15.03
2018-05-05T00:03:25.982Z,15.04
2018-05-05T00:03:52.143Z,14.97
2018-05-05T00:04:18.275Z,14.91
2018-05-05T00:04:44.444Z,14.86
2018-05-05T00:05:10.586Z,14.94
2018-05-05T00:05:36.724Z,14.91
2018-05-05T00:06:02.881Z,14.89
2018-05-05T00:06:29.018Z,14.88
2018-05-05T00:06:55.155Z,14.88
2018-05-05T00:07:21.299Z,14.89
2018-05-05T00:07:47.442Z,14.97
2018-05-05T00:08:13.585Z,14.96
2018-05-05T00:08:39.720Z,14.97
2018-05-05T00:09:05.857Z,14.96
2018-05-05T00:09:32.016Z,14.94
2018-05-05T00:09:58.156Z,14.99
2018-05-05T00:10:24.293Z,14.94
2018-05-05T00:10:50.430Z,14.94
2018-05-05T00:11:16.590Z,14.99
2018-05-05T00:11:42.732Z,14.92
2018-05-05T00:12:08.865Z,14.91
2018-05-05T00:12:35.000Z,14.85
2018-05-05T00:13:01.146Z,14.82
2018-05-05T00:13:27.278Z,14.78
2018-05-05T00:13:53.453Z,14.79
2018-05-05T00:14:19.585Z,14.78
2018-05-05T00:14:45.750Z,14.77
2018-05-05T00:15:11.887Z,14.77
2018-05-05T00:15:38.020Z,14.7
2018-05-05T00:16:04.188Z,14.79
2018-05-05T00:16:30.326Z,14.79
2018-05-05T00:16:56.458Z,14.81
2018-05-05T00:17:22.623Z,14.78
2018-05-05T00:17:48.787Z,14.79
2018-05-05T00:18:14.926Z,14.66
2018-05-05T00:18:41.069Z,14.68
2018-05-05T00:19:07.211Z,14.72
2018-05-05T00:19:33.348Z,14.77
2018-05-05T00:19:59.500Z,14.72
2018-05-05T00:20:25.667Z,14.81
2018-05-05T00:20:51.830Z,14.65
2018-05-05T00:21:17.989Z,14.68
2018-05-05T00:21:44.125Z,14.65
2018-05-05T00:22:10.291Z,14.62
2018-05-05T00:22:36.445Z,14.59
2018-05-05T00:23:02.586Z,14.6
2018-05-05T00:23:28.721Z,14.65
2018-05-05T00:23:54.861Z,14.59
2018-05-05T00:24:21.015Z,14.65
2018-05-05T00:24:47.161Z,14.72
2018-05-05T00:25:13.298Z,14.66
2018-05-05T00:25:39.457Z,14.58
2018-05-05T00:26:05.596Z,14.66
2018-05-05T00:26:31.731Z,14.65
2018-05-05T00:26:57.876Z,14.66
2018-05-05T00:27:24.011Z,14.7
2018-05-05T00:27:50.177Z,14.72
2018-05-05T00:28:16.321Z,14.72
2018-05-05T00:28:42.453Z,14.66
2018-05-05T00:29:08.618Z,14.7
2018-05-05T00:29:34.780Z,14.69
2018-05-05T00:30:00.911Z,14.68
2018-05-05T00:30:27.053Z,14.69
2018-05-05T00:30:53.197Z,14.68
2018-05-05T00:31:19.359Z,14.72
2018-05-05T00:31:45.488Z,14.7
2018-05-05T00:32:11.652Z,14.66
2018-05-05T00:32:37.792Z,14.66
2018-05-05T00:33:03.951Z,14.66
2018-05-05T00:33:30.124Z,14.66
2018-05-05T00:33:56.280Z,14.66
2018-05-05T00:34:22.421Z,14.69
2018-05-05T00:34:48.555Z,14.7
2018-05-05T00:35:14.693Z,14.65
2018-05-05T00:35:40.827Z,14.65
2018-05-05T00:36:06.967Z,14.68
2018-05-05T00:36:33.108Z,14.66
2018-05-05T00:36:59.238Z,14.63
2018-05-05T00:37:25.382Z,14.68
2018-05-05T00:37:51.517Z,14.63
2018-05-05T00:38:17.650Z,14.53
2018-05-05T00:38:43.786Z,14.62
2018-05-05T00:39:09.930Z,14.59
2018-05-05T00:39:36.061Z,14.62
2018-05-05T00:40:02.204Z,14.54
2018-05-05T00:40:28.361Z,14.55
2018-05-05T00:40:54.506Z,14.65
2018-05-05T00:41:20.644Z,14.62
2018-05-05T00:41:46.775Z,14.63
2018-05-05T00:42:12.916Z,14.54
2018-05-05T00:42:39.054Z,14.65
2018-05-05T00:43:05.195Z,14.66
2018-05-05T00:43:31.336Z,14.65
2018-05-05T00:43:57.468Z,14.66
2018-05-05T00:44:23.607Z,14.68
2018-05-05T00:44:49.749Z,14.66
2018-05-05T00:45:15.885Z,14.59
2018-05-05T00:45:42.027Z,14.69
2018-05-05T00:46:08.166Z,14.63
2018-05-05T00:46:34.912Z,14.65
2018-05-05T00:47:01.043Z,14.62
2018-05-05T00:47:27.176Z,14.6
2018-05-05T00:47:53.313Z,14.6
2018-05-05T00:48:19.449Z,14.59
2018-05-05T00:48:45.590Z,14.66
2018-05-05T00:49:11.720Z,14.6
2018-05-05T00:49:37.907Z,14.6
2018-05-05T00:50:04.044Z,14.63
2018-05-05T00:50:30.190Z,14.59
2018-05-05T00:50:56.328Z,14.6
2018-05-05T00:51:22.491Z,14.69
2018-05-05T00:51:48.646Z,14.62
2018-05-05T00:52:14.810Z,14.47
2018-05-05T00:52:40.947Z,14.54
2018-05-05T00:53:07.111Z,14.48
2018-05-05T00:53:33.250Z,14.51
2018-05-05T00:53:59.417Z,14.53
2018-05-05T00:54:25.567Z,14.5
2018-05-05T00:54:51.719Z,14.53
2018-05-05T00:55:17.889Z,14.48
2018-05-05T00:55:44.067Z,14.5
2018-05-05T00:56:10.215Z,14.48
2018-05-05T00:56:36.343Z,14.5
2018-05-05T00:57:02.490Z,14.48
2018-05-05T00:57:28.624Z,14.45
2018-05-05T00:57:54.787Z,14.5
2018-05-05T00:58:20.931Z,14.51
2018-05-05T00:58:47.085Z,14.45
2018-05-05T00:59:13.281Z,14.5
2018-05-05T00:59:39.427Z,14.5
2018-05-05T01:00:05.585Z,14.45
2018-05-05T01:00:31.746Z,14.47
2018-05-05T01:00:57.891Z,14.44
2018-05-05T01:01:24.033Z,14.51
2018-05-05T01:01:50.187Z,14.41
2018-05-05T01:02:16.329Z,14.44
2018-05-05T01:02:42.459Z,14.54
2018-05-05T01:03:08.604Z,14.45
2018-05-05T01:03:34.736Z,14.43
2018-05-05T01:04:00.907Z,14.48
2018-05-05T01:04:27.064Z,14.44
2018-05-05T01:04:53.232Z,14.51
2018-05-05T01:05:19.364Z,14.41
2018-05-05T01:05:45.503Z,14.44
2018-05-05T01:06:11.646Z,14.36
2018-05-05T01:06:37.784Z,14.37
2018-05-05T01:07:03.946Z,14.32
2018-05-05T01:07:30.086Z,14.33
2018-05-05T01:07:56.222Z,14.2
2018-05-05T01:08:22.386Z,14.23
2018-05-05T01:08:48.527Z,14.22
2018-05-05T01:09:14.667Z,14.25
2018-05-05T01:09:40.826Z,14.26
2018-05-05T01:10:06.984Z,14.17
2018-05-05T01:10:33.129Z,14.12
2018-05-05T01:10:59.261Z,14.11
2018-05-05T01:11:25.402Z,14.15
2018-05-05T01:11:51.540Z,14.15
2018-05-05T01:12:17.672Z,14.11
2018-05-05T01:12:43.811Z,14.11
2018-05-05T01:13:09.968Z,14.1
2018-05-05T01:13:36.106Z,14.15
2018-05-05T01:14:02.243Z,14.14
2018-05-05T01:14:28.382Z,14.11
2018-05-05T01:14:54.511Z,14.17
2018-05-05T01:15:20.653Z,14.11
2018-05-05T01:15:46.789Z,14.1
2018-05-05T01:16:12.929Z,14.17
2018-05-05T01:16:39.075Z,14.11
2018-05-05T01:17:05.211Z,14.2
2018-05-05T01:17:31.371Z,14.17
2018-05-05T01:17:57.511Z,14.15
2018-05-05T01:18:23.653Z,14.14
2018-05-05T01:18:49.785Z,14.2
2018-05-05T01:19:15.916Z,14.26
2018-05-05T01:19:42.071Z,14.22
2018-05-05T01:20:08.216Z,14.23
2018-05-05T01:20:34.374Z,14.25
2018-05-05T01:21:00.515Z,14.2
2018-05-05T01:21:26.657Z,14.2
2018-05-05T01:21:52.792Z,14.23
2018-05-05T01:22:18.955Z,14.25
2018-05-05T01:22:45.085Z,14.23
2018-05-05T01:23:11.237Z,14.18
2018-05-05T01:23:37.390Z,14.2
2018-05-05T01:24:03.535Z,14.18
2018-05-05T01:24:29.694Z,14.23
2018-05-05T01:24:55.837Z,14.14
2018-05-05T01:25:21.974Z,14.07
2018-05-05T01:25:48.112Z,14.17
2018-05-05T01:26:14.240Z,14.11
2018-05-05T01:26:40.385Z,14.14
2018-05-05T01:27:06.516Z,14.12
2018-05-05T01:27:32.660Z,14.12
2018-05-05T01:27:58.818Z,14.05
2018-05-05T01:28:24.959Z,14
2018-05-05T01:28:51.094Z,14.07
2018-05-05T01:29:17.261Z,14.08
2018-05-05T01:29:43.400Z,13.97
2018-05-05T01:30:09.532Z,13.96
2018-05-05T01:30:35.670Z,14.03
2018-05-05T01:31:01.801Z,14.04
2018-05-05T01:31:27.942Z,14.08
2018-05-05T01:31:54.077Z,14
2018-05-05T01:32:20.212Z,14.04
2018-05-05T01:32:46.347Z,13.85
2018-05-05T01:33:12.505Z,13.85
2018-05-05T01:33:38.661Z,13.83
2018-05-05T01:34:04.847Z,13.74
2018-05-05T01:34:30.981Z,13.74
2018-05-05T01:34:57.120Z,13.71
2018-05-05T01:35:23.256Z,13.79
2018-05-05T01:35:49.421Z,13.71
2018-05-05T01:36:15.556Z,13.72
2018-05-05T01:36:41.693Z,13.71
2018-05-05T01:37:07.897Z,13.68
2018-05-05T01:37:34.040Z,13.57
2018-05-05T01:38:00.183Z,13.6
2018-05-05T01:38:26.315Z,13.62
2018-05-05T01:38:52.452Z,13.7
2018-05-05T01:39:18.593Z,13.6
2018-05-05T01:39:44.728Z,13.68
2018-05-05T01:40:10.866Z,13.6
2018-05-05T01:40:37.031Z,13.72
2018-05-05T01:41:03.192Z,13.6
2018-05-05T01:41:29.330Z,13.6
2018-05-05T01:41:55.475Z,13.56
2018-05-05T01:42:21.629Z,13.5
2018-05-05T01:42:47.769Z,13.53
2018-05-05T01:43:13.904Z,13.54
2018-05-05T01:43:40.035Z,13.52
2018-05-05T01:44:06.173Z,13.52
2018-05-05T01:44:32.305Z,13.49
2018-05-05T01:44:58.437Z,13.39
2018-05-05T01:45:24.583Z,13.41
2018-05-05T01:45:50.714Z,13.42
2018-05-05T01:46:16.857Z,13.39
2018-05-05T01:46:42.991Z,13.38
2018-05-05T01:47:09.156Z,13.44
2018-05-05T01:47:35.290Z,13.38
2018-05-05T01:48:01.494Z,13.49
2018-05-05T01:48:27.626Z,13.44
2018-05-05T01:48:53.772Z,13.35
2018-05-05T01:49:19.914Z,13.33
2018-05-05T01:49:46.051Z,13.37
2018-05-05T01:50:12.189Z,13.39
2018-05-05T01:50:38.330Z,13.27
2018-05-05T01:51:04.469Z,13.23
2018-05-05T01:51:30.624Z,13.28
2018-05-05T01:51:56.789Z,13.22
2018-05-05T01:52:22.928Z,13.25
2018-05-05T01:52:49.085Z,13.28
2018-05-05T01:53:15.228Z,13.28
2018-05-05T01:53:41.369Z,13.28
2018-05-05T01:54:07.526Z,13.31
2018-05-05T01:54:33.660Z,13.28
2018-05-05T01:54:59.794Z,13.22
2018-05-05T01:55:25.939Z,13.25
2018-05-05T01:55:52.074Z,13.19
2018-05-05T01:56:18.215Z,13.27
2018-05-05T01:56:44.369Z,13.3
2018-05-05T01:57:10.514Z,13.27
2018-05-05T01:57:36.648Z,13.23
2018-05-05T01:58:02.785Z,13.25
2018-05-05T01:58:28.949Z,13.23
2018-05-05T01:58:55.084Z,13.25
2018-05-05T01:59:21.224Z,13.27
2018-05-05T01:59:47.384Z,13.25
2018-05-05T02:00:13.501Z,13.25
2018-05-05T02:00:39.631Z,13.25
2018-05-05T02:01:05.801Z,13.3
2018-05-05T02:01:31.963Z,13.33
2018-05-05T02:01:58.106Z,13.27
2018-05-05T02:02:24.242Z,13.35
2018-05-05T02:02:50.383Z,13.3
2018-05-05T02:03:16.528Z,13.27
2018-05-05T02:03:42.681Z,13.22
2018-05-05T02:04:08.816Z,13.2
2018-05-05T02:04:35.005Z,13.2
2018-05-05T02:05:01.100Z,13.18
2018-05-05T02:05:27.231Z,13.13
2018-05-05T02:05:53.370Z,13.19
2018-05-05T02:06:19.509Z,13.11
2018-05-05T02:06:45.643Z,13.13
2018-05-05T02:07:11.780Z,13.15
2018-05-05T02:07:37.913Z,13.05
2018-05-05T02:08:04.056Z,13.12
2018-05-05T02:08:30.215Z,13.08
2018-05-05T02:08:56.374Z,13.01
2018-05-05T02:09:22.515Z,12.93
2018-05-05T02:09:48.672Z,12.95
2018-05-05T02:10:14.814Z,12.97
2018-05-05T02:10:40.977Z,12.93
2018-05-05T02:11:07.118Z,12.94
2018-05-05T02:11:33.256Z,12.97
2018-05-05T02:11:59.418Z,12.95
2018-05-05T02:12:25.554Z,12.97
2018-05-05T02:12:51.690Z,12.94
2018-05-05T02:13:17.829Z,12.95
2018-05-05T02:13:43.997Z,13.03
2018-05-05T02:14:10.164Z,12.97
2018-05-05T02:14:36.293Z,13.04
2018-05-05T02:15:02.512Z,13.08
2018-05-05T02:15:28.585Z,13.12
2018-05-05T02:15:54.739Z,13.12
2018-05-05T02:16:20.877Z,13.09
2018-05-05T02:16:47.013Z,13.09
2018-05-05T02:17:13.150Z,13.11
2018-05-05T02:17:39.292Z,13.16
2018-05-05T02:18:05.423Z,13.08
2018-05-05T02:18:31.567Z,13.15
2018-05-05T02:18:57.723Z,13.08
2018-05-05T02:19:23.862Z,13.08
2018-05-05T02:19:50.023Z,13.16
2018-05-05T02:20:16.182Z,13.08
2018-05-05T02:20:42.347Z,13.16
2018-05-05T02:21:08.504Z,13.09
2018-05-05T02:21:34.663Z,13.16
2018-05-05T02:22:00.801Z,13.19
2018-05-05T02:22:26.938Z,13.15
2018-05-05T02:22:53.096Z,13.11
2018-05-05T02:23:19.231Z,13.08
2018-05-05T02:23:45.398Z,13.09
2018-05-05T02:24:11.537Z,13.15
2018-05-05T02:24:37.675Z,13.08
2018-05-05T02:25:03.805Z,13.12
2018-05-05T02:25:29.948Z,13.09
2018-05-05T02:25:56.110Z,13.08
2018-05-05T02:26:22.240Z,13.08
2018-05-05T02:26:48.376Z,13.04
2018-05-05T02:27:14.515Z,13
2018-05-05T02:27:40.665Z,13.03
2018-05-05T02:28:06.807Z,13.05
2018-05-05T02:28:32.945Z,13.08
2018-05-05T02:28:59.082Z,13.08
2018-05-05T02:29:25.224Z,13.09
2018-05-05T02:29:51.388Z,13.09
2018-05-05T02:30:17.552Z,13.09
2018-05-05T02:30:43.692Z,13.13
2018-05-05T02:31:09.848Z,13.09
2018-05-05T02:31:35.987Z,13.12
2018-05-05T02:32:02.124Z,13.09
2018-05-05T02:32:28.268Z,13.11
2018-05-05T02:32:54.412Z,13.15
2018-05-05T02:33:20.554Z,13.12
2018-05-05T02:33:46.712Z,13.08
2018-05-05T02:34:12.871Z,13.04
2018-05-05T02:34:39.066Z,13.08
2018-05-05T02:35:05.202Z,13.12
2018-05-05T02:35:31.337Z,13.04
2018-05-05T02:35:57.505Z,13.05
2018-05-05T02:36:23.722Z,13.03
2018-05-05T02:36:49.876Z,13
2018-05-05T02:37:16.013Z,13
2018-05-05T02:37:42.156Z,12.98
2018-05-05T02:38:08.344Z,13.04
2018-05-05T02:38:34.472Z,13.09
2018-05-05T02:39:00.637Z,13.08
2018-05-05T02:39:26.782Z,13.09
2018-05-05T02:39:52.936Z,13
2018-05-05T02:40:19.073Z,12.97
2018-05-05T02:40:45.237Z,12.97
2018-05-05T02:41:11.421Z,12.94
2018-05-05T02:41:37.563Z,12.97
2018-05-05T02:42:03.698Z,12.94
2018-05-05T02:42:29.854Z,12.93
2018-05-05T02:42:56.050Z,12.95
2018-05-05T02:43:22.181Z,13
2018-05-05T02:43:48.351Z,12.94
2018-05-05T02:44:14.489Z,12.85
2018-05-05T02:44:40.622Z,12.86
2018-05-05T02:45:06.783Z,12.93
2018-05-05T02:45:32.932Z,12.95
2018-05-05T02:45:59.090Z,12.91
2018-05-05T02:46:25.228Z,12.98
2018-05-05T02:46:51.368Z,13.01
2018-05-05T02:47:17.512Z,13
2018-05-05T02:47:43.641Z,13.09
2018-05-05T02:48:09.813Z,12.97
2018-05-05T02:48:35.992Z,12.97
2018-05-05T02:49:02.154Z,12.94
2018-05-05T02:49:28.292Z,12.93
2018-05-05T02:49:54.476Z,12.87
2018-05-05T02:50:20.670Z,12.87
2018-05-05T02:50:46.876Z,12.86
2018-05-05T02:51:13.009Z,12.93
2018-05-05T02:51:39.173Z,12.86
2018-05-05T02:52:05.332Z,12.86
2018-05-05T02:52:31.541Z,12.91
2018-05-05T02:52:57.701Z,12.95
2018-05-05T02:53:23.840Z,12.94
2018-05-05T02:53:49.974Z,12.98
2018-05-05T02:54:16.111Z,13
2018-05-05T02:54:42.270Z,12.97
2018-05-05T02:55:08.432Z,12.94
2018-05-05T02:55:34.599Z,12.94
2018-05-05T02:56:00.756Z,12.91
2018-05-05T02:56:26.896Z,12.94
2018-05-05T02:56:53.028Z,12.94
2018-05-05T02:57:19.170Z,12.94
2018-05-05T02:57:45.328Z,12.97
2018-05-05T02:58:11.495Z,13.01
2018-05-05T02:58:37.626Z,13.03
2018-05-05T02:59:03.768Z,13.12
2018-05-05T02:59:29.928Z,13.09
2018-05-05T02:59:56.084Z,13.11
2018-05-05T03:00:22.223Z,13.04
2018-05-05T03:00:48.383Z,13.04
2018-05-05T03:01:14.522Z,13.13
2018-05-05T03:01:40.652Z,13.11
2018-05-05T03:02:06.796Z,13.19
2018-05-05T03:02:32.970Z,13.11
2018-05-05T03:02:59.163Z,13.13
2018-05-05T03:03:25.297Z,13.09
2018-05-05T03:03:51.429Z,13.05
2018-05-05T03:04:17.580Z,13.12
2018-05-05T03:04:43.772Z,13.05
2018-05-05T03:05:09.914Z,13.11
2018-05-05T03:05:36.054Z,13.12
2018-05-05T03:06:02.235Z,13.08
2018-05-05T03:06:28.372Z,13.12
2018-05-05T03:06:54.533Z,13.05
2018-05-05T03:07:20.697Z,13.03
2018-05-05T03:07:46.828Z,13.03
2018-05-05T03:08:12.973Z,13.04
2018-05-05T03:08:39.135Z,13.13
2018-05-05T03:09:05.324Z,13.09
2018-05-05T03:09:31.477Z,13.11
2018-05-05T03:09:57.626Z,13.03
2018-05-05T03:10:23.809Z,13.03
2018-05-05T03:10:49.940Z,13.09
2018-05-05T03:11:16.079Z,13.04
2018-05-05T03:11:42.228Z,13
2018-05-05T03:12:08.367Z,12.98
2018-05-05T03:12:34.527Z,12.98
2018-05-05T03:13:00.668Z,12.98
2018-05-05T03:13:26.830Z,12.98
2018-05-05T03:13:52.983Z,13.03
2018-05-05T03:14:19.165Z,13.01
2018-05-05T03:14:45.294Z,13.03
2018-05-05T03:15:11.461Z,13.12
2018-05-05T03:15:37.599Z,13.08
2018-05-05T03:16:03.733Z,13.08
2018-05-05T03:16:29.869Z,13.05
2018-05-05T03:16:56.035Z,13.12
2018-05-05T03:17:22.195Z,13
2018-05-05T03:17:48.337Z,12.95
2018-05-05T03:18:14.469Z,13.04
2018-05-05T03:18:40.611Z,13.03
2018-05-05T03:19:06.763Z,12.95
2018-05-05T03:19:32.904Z,12.95
2018-05-05T03:19:59.038Z,12.97
2018-05-05T03:20:25.180Z,13
2018-05-05T03:20:51.310Z,13.08
2018-05-05T03:21:17.455Z,13.08
2018-05-05T03:21:43.591Z,13.11
2018-05-05T03:22:09.732Z,13.08
2018-05-05T03:22:35.910Z,13.09
2018-05-05T03:23:02.057Z,13.12
2018-05-05T03:23:28.194Z,13.11
2018-05-05T03:23:54.334Z,13.11
2018-05-05T03:24:20.493Z,13.09
2018-05-05T03:24:46.624Z,13.01
2018-05-05T03:25:12.758Z,13.04
2018-05-05T03:25:38.903Z,13.08
2018-05-05T03:26:05.036Z,13.08
2018-05-05T03:26:31.194Z,13.13
2018-05-05T03:26:57.372Z,13.12
2018-05-05T03:27:23.495Z,13.16
2018-05-05T03:27:49.637Z,13.15
2018-05-05T03:28:15.793Z,13.16
2018-05-05T03:28:41.927Z,13.19
2018-05-05T03:29:08.069Z,13.11
2018-05-05T03:29:34.223Z,13.11
2018-05-05T03:30:00.363Z,13.16
2018-05-05T03:30:26.561Z,13.09
2018-05-05T03:30:52.723Z,13.08
2018-05-05T03:31:18.918Z,13.09
2018-05-05T03:31:45.132Z,13.11
2018-05-05T03:32:11.303Z,13.04
2018-05-05T03:32:37.471Z,13.09
2018-05-05T03:33:03.605Z,13.08
2018-05-05T03:33:29.745Z,13.12
2018-05-05T03:33:55.879Z,13.12
2018-05-05T03:34:22.026Z,13.2
2018-05-05T03:34:48.183Z,13.12
2018-05-05T03:35:14.326Z,13.19
2018-05-05T03:35:40.459Z,13.13
2018-05-05T03:36:06.620Z,13.09
2018-05-05T03:36:32.754Z,13.13
2018-05-05T03:36:58.924Z,13.15
2018-05-05T03:37:25.084Z,13.11
2018-05-05T03:37:51.227Z,13.16
2018-05-05T03:38:17.367Z,13.12
2018-05-05T03:38:43.522Z,13.18
2018-05-05T03:39:09.691Z,13.12
2018-05-05T03:39:35.825Z,13.18
2018-05-05T03:40:01.972Z,13.09
2018-05-05T03:40:28.108Z,13.13
2018-05-05T03:40:54.275Z,13.12
2018-05-05T03:41:20.405Z,13.12
2018-05-05T03:41:46.639Z,13.05
2018-05-05T03:42:12.721Z,13.11
2018-05-05T03:42:38.866Z,13.11
2018-05-05T03:43:05.007Z,13.12
2018-05-05T03:43:31.187Z,13.11
2018-05-05T03:43:57.328Z,13.11
2018-05-05T03:44:23.487Z,13.08
2018-05-05T03:44:49.652Z,13.15
2018-05-05T03:45:15.806Z,13.09
2018-05-05T03:45:41.950Z,13.15
2018-05-05T03:46:08.081Z,13.11
2018-05-05T03:46:34.223Z,13.09
2018-05-05T03:47:00.352Z,13.13
2018-05-05T03:47:26.517Z,13.13
2018-05-05T03:47:52.658Z,13.13
2018-05-05T03:48:18.794Z,13.11
2018-05-05T03:48:44.935Z,13.11
2018-05-05T03:49:11.097Z,13.15
2018-05-05T03:49:37.228Z,13.13
2018-05-05T03:50:03.369Z,13.15
2018-05-05T03:50:29.509Z,13.19
2018-05-05T03:50:55.644Z,13.2
2018-05-05T03:51:21.779Z,13.09
2018-05-05T03:51:47.917Z,13.15
2018-05-05T03:52:14.053Z,13.11
2018-05-05T03:52:40.192Z,13.09
2018-05-05T03:53:06.336Z,13.08
2018-05-05T03:53:32.475Z,13.12
2018-05-05T03:53:58.605Z,13.15
2018-05-05T03:54:24.754Z,13.16
2018-05-05T03:54:50.924Z,13.16
2018-05-05T03:55:17.046Z,13.12
2018-05-05T03:55:43.179Z,13.09
2018-05-05T03:56:09.314Z,13.19
2018-05-05T03:56:35.447Z,13.09
2018-05-05T03:57:01.590Z,13.18
2018-05-05T03:57:27.821Z,13.11
2018-05-05T03:57:53.886Z,13.2
2018-05-05T03:58:20.025Z,13.15
2018-05-05T03:58:46.159Z,13.13
2018-05-05T03:59:12.293Z,13.2
2018-05-05T03:59:38.436Z,13.2
2018-05-05T04:00:04.602Z,13.23
2018-05-05T04:00:30.736Z,13.2
2018-05-05T04:00:56.868Z,13.23
2018-05-05T04:01:23.003Z,13.22
2018-05-05T04:01:49.140Z,13.25
2018-05-05T04:02:15.277Z,13.22
2018-05-05T04:02:41.410Z,13.3
2018-05-05T04:03:07.555Z,13.23
2018-05-05T04:03:33.715Z,13.3
2018-05-05T04:03:59.856Z,13.25
2018-05-05T04:04:26.006Z,13.19
2018-05-05T04:04:52.199Z,13.23
2018-05-05T04:05:18.330Z,13.18
2018-05-05T04:05:44.474Z,13.25
2018-05-05T04:06:10.607Z,13.3
2018-05-05T04:06:36.748Z,13.3
2018-05-05T04:07:02.881Z,13.27
2018-05-05T04:07:29.037Z,13.25
2018-05-05T04:07:55.172Z,13.33
2018-05-05T04:08:21.319Z,13.22
2018-05-05T04:08:47.468Z,13.19
2018-05-05T04:09:13.611Z,13.18
2018-05-05T04:09:39.750Z,13.2
2018-05-05T04:10:05.912Z,13.27
2018-05-05T04:10:32.045Z,13.11
2018-05-05T04:10:58.190Z,13.13
2018-05-05T04:11:24.321Z,13.12
2018-05-05T04:11:50.461Z,13.22
2018-05-05T04:12:16.596Z,13.16
2018-05-05T04:12:42.740Z,13.11
2018-05-05T04:13:08.872Z,13.16
2018-05-05T04:13:35.016Z,13.11
2018-05-05T04:14:01.152Z,13.15
2018-05-05T04:14:27.292Z,13.11
2018-05-05T04:14:53.425Z,13.12
2018-05-05T04:15:19.563Z,13.08
2018-05-05T04:15:45.704Z,13.11
2018-05-05T04:16:11.847Z,13.11
2018-05-05T04:16:38.001Z,13.01
2018-05-05T04:17:04.141Z,13.03
2018-05-05T04:17:30.274Z,12.95
2018-05-05T04:17:56.418Z,12.86
2018-05-05T04:18:22.545Z,12.98
2018-05-05T04:18:48.688Z,12.83
2018-05-05T04:19:14.829Z,12.8
2018-05-05T04:19:41.033Z,12.73
2018-05-05T04:20:07.128Z,12.85
2018-05-05T04:20:33.271Z,12.75
2018-05-05T04:20:59.402Z,12.8
2018-05-05T04:21:25.563Z,12.82
2018-05-05T04:21:51.729Z,12.86
2018-05-05T04:22:17.887Z,12.78
2018-05-05T04:22:44.030Z,12.85
2018-05-05T04:23:10.163Z,12.82
2018-05-05T04:23:36.295Z,12.8
2018-05-05T04:24:02.460Z,12.82
2018-05-05T04:24:28.593Z,12.82
2018-05-05T04:24:54.731Z,12.8
2018-05-05T04:25:20.906Z,12.75
2018-05-05T04:25:47.037Z,12.7
2018-05-05T04:26:13.173Z,12.86
2018-05-05T04:26:39.333Z,12.78
2018-05-05T04:27:05.466Z,12.83
2018-05-05T04:27:31.612Z,12.82
2018-05-05T04:27:57.743Z,12.8
2018-05-05T04:28:23.883Z,12.86
2018-05-05T04:28:50.019Z,12.85
2018-05-05T04:29:16.157Z,12.85
2018-05-05T04:29:42.291Z,12.87
2018-05-05T04:30:08.438Z,12.93
2018-05-05T04:30:34.572Z,12.91
2018-05-05T04:31:00.715Z,12.93
2018-05-05T04:31:26.857Z,12.86
2018-05-05T04:31:53.018Z,12.91
2018-05-05T04:32:19.187Z,12.94
2018-05-05T04:32:45.348Z,13.03
2018-05-05T04:33:11.514Z,13
2018-05-05T04:33:37.644Z,13.09
2018-05-05T04:34:03.788Z,13.03
2018-05-05T04:34:29.924Z,13.01
2018-05-05T04:34:56.061Z,13.01
2018-05-05T04:35:22.201Z,12.94
2018-05-05T04:35:48.336Z,12.94
2018-05-05T04:36:14.500Z,12.78
2018-05-05T04:36:40.633Z,12.82
2018-05-05T04:37:06.776Z,12.7
2018-05-05T04:37:32.934Z,12.8
2018-05-05T04:37:59.079Z,12.82
2018-05-05T04:38:25.214Z,12.8
2018-05-05T04:38:51.378Z,12.8
2018-05-05T04:39:17.512Z,12.86
2018-05-05T04:39:43.653Z,12.9
2018-05-05T04:40:09.796Z,12.8
2018-05-05T04:40:35.957Z,12.91
2018-05-05T04:41:02.098Z,12.97
2018-05-05T04:41:28.240Z,12.87
2018-05-05T04:41:54.400Z,12.85
2018-05-05T04:42:20.567Z,12.93
2018-05-05T04:42:46.709Z,12.86
2018-05-05T04:43:12.920Z,12.93
2018-05-05T04:43:38.999Z,12.94
2018-05-05T04:44:05.143Z,12.94
2018-05-05T04:44:31.375Z,12.94
2018-05-05T04:44:57.423Z,12.95
2018-05-05T04:45:23.553Z,13
2018-05-05T04:45:49.698Z,13.04
2018-05-05T04:46:15.837Z,13.04
2018-05-05T04:46:41.971Z,13.08
2018-05-05T04:47:08.131Z,13.09
2018-05-05T04:47:34.267Z,13.11
2018-05-05T04:48:00.408Z,13.09
2018-05-05T04:48:26.544Z,13.15
2018-05-05T04:48:52.684Z,13.08
2018-05-05T04:49:18.814Z,13.19
2018-05-05T04:49:44.972Z,13.12
2018-05-05T04:50:11.114Z,13.15
2018-05-05T04:50:37.249Z,13.12
2018-05-05T04:51:03.388Z,13.19
2018-05-05T04:51:29.603Z,13.18
2018-05-05T04:51:55.692Z,13.16
2018-05-05T04:52:21.851Z,13.19
2018-05-05T04:52:47.985Z,13.18
2018-05-05T04:53:14.128Z,13.2
2018-05-05T04:53:40.292Z,13.09
2018-05-05T04:54:06.426Z,13.16
2018-05-05T04:54:32.566Z,13.09
2018-05-05T04:54:58.718Z,13.22
2018-05-05T04:55:24.861Z,13.18
2018-05-05T04:55:51.014Z,13.13
2018-05-05T04:56:17.177Z,13.15
2018-05-05T04:56:43.308Z,13.18
2018-05-05T04:57:09.513Z,13.11
2018-05-05T04:57:35.629Z,13.12
2018-05-05T04:58:01.765Z,13.03
2018-05-05T04:58:27.903Z,13.11
2018-05-05T04:58:54.075Z,13.09
2018-05-05T04:59:20.207Z,13.08
2018-05-05T04:59:46.354Z,13.08
2018-05-05T05:00:12.516Z,13.11
2018-05-05T05:00:38.651Z,13.16
2018-05-05T05:01:04.788Z,13.16
2018-05-05T05:01:30.928Z,13.19
2018-05-05T05:01:57.065Z,13.19
2018-05-05T05:02:23.202Z,13.13
2018-05-05T05:02:49.339Z,13.18
2018-05-05T05:03:15.474Z,13.16
2018-05-05T05:03:41.605Z,13.11
2018-05-05T05:04:07.748Z,13.13
2018-05-05T05:04:33.880Z,13.18
2018-05-05T05:05:00.062Z,13.09
2018-05-05T05:05:26.186Z,13.09
2018-05-05T05:05:52.320Z,13
2018-05-05T05:06:18.460Z,13.01
2018-05-05T05:06:44.599Z,12.95
2018-05-05T05:07:10.733Z,12.95
2018-05-05T05:07:36.869Z,12.95
2018-05-05T05:08:03.013Z,12.94
2018-05-05T05:08:29.150Z,12.95
2018-05-05T05:08:55.289Z,13.08
2018-05-05T05:09:21.430Z,13
2018-05-05T05:09:47.616Z,13.01
2018-05-05T05:10:13.752Z,13
2018-05-05T05:10:39.892Z,12.93
2018-05-05T05:11:06.073Z,12.95
2018-05-05T05:11:32.240Z,12.8
2018-05-05T05:11:58.401Z,12.78
2018-05-05T05:12:24.562Z,12.85
2018-05-05T05:12:50.731Z,12.64
2018-05-05T05:13:16.894Z,12.72
2018-05-05T05:13:43.040Z,12.75
2018-05-05T05:14:09.183Z,12.72
2018-05-05T05:14:35.337Z,12.68
2018-05-05T05:15:01.487Z,12.61
2018-05-05T05:15:27.629Z,12.68
2018-05-05T05:15:53.783Z,12.61
2018-05-05T05:16:19.928Z,12.55
2018-05-05T05:16:46.105Z,12.61
2018-05-05T05:17:12.238Z,12.67
2018-05-05T05:17:38.459Z,12.65
2018-05-05T05:18:04.536Z,12.65
2018-05-05T05:18:30.690Z,12.61
2018-05-05T05:18:56.824Z,12.55
2018-05-05T05:19:22.961Z,12.53
2018-05-05T05:19:49.123Z,12.47
2018-05-05T05:20:15.257Z,12.47
2018-05-05T05:20:41.395Z,12.39
2018-05-05T05:21:07.537Z,12.45
2018-05-05T05:21:33.676Z,12.46
2018-05-05T05:21:59.816Z,12.47
2018-05-05T05:22:25.951Z,12.42
2018-05-05T05:22:52.119Z,12.4
2018-05-05T05:23:18.282Z,12.47
2018-05-05T05:23:44.415Z,12.4
2018-05-05T05:24:10.556Z,12.47
2018-05-05T05:24:36.691Z,12.49
2018-05-05T05:25:02.869Z,12.47
2018-05-05T05:25:29.005Z,12.57
2018-05-05T05:25:55.152Z,12.54
2018-05-05T05:26:21.293Z,12.64
2018-05-05T05:26:47.425Z,12.7
2018-05-05T05:27:13.579Z,12.55
2018-05-05T05:27:39.726Z,12.68
2018-05-05T05:28:05.883Z,12.64
2018-05-05T05:28:32.028Z,12.64
2018-05-05T05:28:58.163Z,12.72
2018-05-05T05:29:24.306Z,12.64
2018-05-05T05:29:50.450Z,12.57
2018-05-05T05:30:16.583Z,12.64
2018-05-05T05:30:42.736Z,12.67
2018-05-05T05:31:08.899Z,12.67
2018-05-05T05:31:35.034Z,12.67
2018-05-05T05:32:01.199Z,12.65
2018-05-05T05:32:27.336Z,12.58
2018-05-05T05:32:53.470Z,12.61
2018-05-05T05:33:19.608Z,12.72
2018-05-05T05:33:45.747Z,12.65
2018-05-05T05:34:11.898Z,12.65
2018-05-05T05:34:38.038Z,12.75
2018-05-05T05:35:04.199Z,12.73
2018-05-05T05:35:30.345Z,12.72
2018-05-05T05:35:56.478Z,12.65
2018-05-05T05:36:22.624Z,12.7
2018-05-05T05:36:48.756Z,12.55
2018-05-05T05:37:14.936Z,12.7
2018-05-05T05:37:41.098Z,12.58
2018-05-05T05:38:07.206Z,12.73
2018-05-05T05:38:33.342Z,12.7